sensor_id;sensor_type;location;lat;lon;timestamp;P1;durP1;ratioP1;P2;durP2;ratioP2
41943;SDS011;27636;52.610;13.244;2023-04-25T00:03:22;5.90;;;1.95;;
41943;SDS011;27636;52.610;13.244;2023-04-25T00:08:28;4.47;;;2.17;;
41943;SDS011;27636;52.610;13.244;2023-04-25T00:13:33;5.13;;;1.88;;
41943;SDS011;27636;52.610;13.244;2023-04-25T00:18:37;5.20;;;2.30;;
41943;SDS011;27636;52.610;13.244;2023-04-25T00:23:41;4.60;;;1.92;;
41943;SDS011;27636;52.610;13.244;2023-04-25T00:28:46;5.78;;;2.13;;
41943;SDS011;27636;52.610;13.244;2023-04-25T00:38:54;5.25;;;1.88;;
41943;SDS011;27636;52.610;13.244;2023-04-25T00:44:00;5.70;;;2.10;;
41943;SDS011;27636;52.610;13.244;2023-04-25T00:49:06;7.43;;;1.85;;
41943;SDS011;27636;52.610;13.244;2023-04-25T00:54:10;7.28;;;1.77;;
41943;SDS011;27636;52.610;13.244;2023-04-25T00:59:15;5.18;;;2.17;;
41943;SDS011;27636;52.610;13.244;2023-04-25T01:04:19;9.88;;;2.30;;
41943;SDS011;27636;52.610;13.244;2023-04-25T01:09:23;5.00;;;1.92;;
41943;SDS011;27636;52.610;13.244;2023-04-25T01:14:28;7.18;;;2.15;;
41943;SDS011;27636;52.610;13.244;2023-04-25T01:19:33;10.73;;;2.45;;
41943;SDS011;27636;52.610;13.244;2023-04-25T01:24:38;8.18;;;2.38;;
41943;SDS011;27636;52.610;13.244;2023-04-25T01:29:42;4.68;;;2.10;;
41943;SDS011;27636;52.610;13.244;2023-04-25T01:34:45;7.45;;;2.50;;
41943;SDS011;27636;52.610;13.244;2023-04-25T01:39:50;9.98;;;2.13;;
41943;SDS011;27636;52.610;13.244;2023-04-25T01:44:55;15.43;;;2.75;;
41943;SDS011;27636;52.610;13.244;2023-04-25T01:49:58;4.28;;;1.92;;
41943;SDS011;27636;52.610;13.244;2023-04-25T01:55:05;6.67;;;2.53;;
41943;SDS011;27636;52.610;13.244;2023-04-25T02:00:11;5.15;;;1.98;;
41943;SDS011;27636;52.610;13.244;2023-04-25T02:05:15;9.75;;;2.67;;
41943;SDS011;27636;52.610;13.244;2023-04-25T02:17:02;9.07;;;2.10;;
41943;SDS011;27636;52.610;13.244;2023-04-25T02:22:07;7.38;;;2.03;;
41943;SDS011;27636;52.610;13.244;2023-04-25T02:27:10;8.95;;;2.47;;
41943;SDS011;27636;52.610;13.244;2023-04-25T02:32:15;7.63;;;2.63;;
41943;SDS011;27636;52.610;13.244;2023-04-25T02:37:19;5.63;;;2.83;;
41943;SDS011;27636;52.610;13.244;2023-04-25T02:42:23;13.25;;;2.53;;
41943;SDS011;27636;52.610;13.244;2023-04-25T02:47:28;5.18;;;2.22;;
41943;SDS011;27636;52.610;13.244;2023-04-25T02:57:45;11.30;;;3.33;;
41943;SDS011;27636;52.610;13.244;2023-04-25T03:02:56;8.68;;;3.10;;
41943;SDS011;27636;52.610;13.244;2023-04-25T03:08:01;7.65;;;2.67;;
41943;SDS011;27636;52.610;13.244;2023-04-25T03:13:06;9.07;;;3.00;;
41943;SDS011;27636;52.610;13.244;2023-04-25T03:18:11;10.10;;;2.97;;
41943;SDS011;27636;52.610;13.244;2023-04-25T03:23:15;12.38;;;2.78;;
41943;SDS011;27636;52.610;13.244;2023-04-25T03:28:19;7.75;;;2.78;;
41943;SDS011;27636;52.610;13.244;2023-04-25T03:33:24;8.13;;;2.77;;
41943;SDS011;27636;52.610;13.244;2023-04-25T03:38:28;7.10;;;3.33;;
41943;SDS011;27636;52.610;13.244;2023-04-25T03:43:32;11.05;;;3.13;;
41943;SDS011;27636;52.610;13.244;2023-04-25T03:48:42;6.32;;;2.70;;
41943;SDS011;27636;52.610;13.244;2023-04-25T03:53:51;11.48;;;3.15;;
41943;SDS011;27636;52.610;13.244;2023-04-25T03:58:55;11.73;;;3.17;;
41943;SDS011;27636;52.610;13.244;2023-04-25T04:04:02;10.73;;;2.72;;
41943;SDS011;27636;52.610;13.244;2023-04-25T04:09:07;9.00;;;3.20;;
41943;SDS011;27636;52.610;13.244;2023-04-25T04:14:15;11.15;;;3.08;;
41943;SDS011;27636;52.610;13.244;2023-04-25T04:19:22;8.82;;;2.45;;
41943;SDS011;27636;52.610;13.244;2023-04-25T04:24:47;10.48;;;3.33;;
41943;SDS011;27636;52.610;13.244;2023-04-25T04:29:59;8.20;;;2.67;;
41943;SDS011;27636;52.610;13.244;2023-04-25T04:35:11;10.23;;;3.47;;
41943;SDS011;27636;52.610;13.244;2023-04-25T04:40:17;9.20;;;2.85;;
41943;SDS011;27636;52.610;13.244;2023-04-25T04:45:28;9.13;;;2.97;;
41943;SDS011;27636;52.610;13.244;2023-04-25T04:50:52;9.00;;;2.90;;
41943;SDS011;27636;52.610;13.244;2023-04-25T04:56:23;8.20;;;2.75;;
41943;SDS011;27636;52.610;13.244;2023-04-25T05:01:46;10.82;;;2.20;;
41943;SDS011;27636;52.610;13.244;2023-04-25T05:07:20;8.40;;;3.30;;
41943;SDS011;27636;52.610;13.244;2023-04-25T05:12:35;10.23;;;2.50;;
41943;SDS011;27636;52.610;13.244;2023-04-25T05:17:58;9.30;;;2.67;;
41943;SDS011;27636;52.610;13.244;2023-04-25T05:23:27;7.35;;;2.38;;
41943;SDS011;27636;52.610;13.244;2023-04-25T05:28:41;12.85;;;3.10;;
41943;SDS011;27636;52.610;13.244;2023-04-25T05:34:05;8.05;;;2.90;;
41943;SDS011;27636;52.610;13.244;2023-04-25T05:39:18;15.60;;;3.30;;
41943;SDS011;27636;52.610;13.244;2023-04-25T05:44:40;11.48;;;3.03;;
41943;SDS011;27636;52.610;13.244;2023-04-25T05:49:58;7.88;;;2.95;;
41943;SDS011;27636;52.610;13.244;2023-04-25T05:55:22;11.82;;;3.72;;
41943;SDS011;27636;52.610;13.244;2023-04-25T06:05:31;7.55;;;2.97;;
41943;SDS011;27636;52.610;13.244;2023-04-25T06:10:43;6.90;;;3.13;;
41943;SDS011;27636;52.610;13.244;2023-04-25T06:15:48;15.95;;;3.85;;
41943;SDS011;27636;52.610;13.244;2023-04-25T06:26:00;12.13;;;3.70;;
41943;SDS011;27636;52.610;13.244;2023-04-25T06:31:06;8.57;;;3.97;;
41943;SDS011;27636;52.610;13.244;2023-04-25T06:36:12;11.77;;;4.75;;
41943;SDS011;27636;52.610;13.244;2023-04-25T06:41:20;13.88;;;3.50;;
41943;SDS011;27636;52.610;13.244;2023-04-25T06:46:24;10.65;;;3.13;;
41943;SDS011;27636;52.610;13.244;2023-04-25T06:51:31;6.82;;;2.28;;
41943;SDS011;27636;52.610;13.244;2023-04-25T06:56:36;9.60;;;3.40;;
41943;SDS011;27636;52.610;13.244;2023-04-25T07:01:48;11.60;;;3.33;;
41943;SDS011;27636;52.610;13.244;2023-04-25T07:06:56;9.18;;;3.28;;
41943;SDS011;27636;52.610;13.244;2023-04-25T07:12:10;6.35;;;2.90;;
41943;SDS011;27636;52.610;13.244;2023-04-25T07:17:19;6.00;;;2.75;;
41943;SDS011;27636;52.610;13.244;2023-04-25T07:22:23;7.18;;;2.88;;
41943;SDS011;27636;52.610;13.244;2023-04-25T07:27:31;12.63;;;4.22;;
41943;SDS011;27636;52.610;13.244;2023-04-25T07:32:47;9.43;;;2.55;;
41943;SDS011;27636;52.610;13.244;2023-04-25T07:37:51;16.17;;;3.00;;
41943;SDS011;27636;52.610;13.244;2023-04-25T07:42:57;20.77;;;4.53;;
41943;SDS011;27636;52.610;13.244;2023-04-25T07:48:09;27.42;;;3.15;;
41943;SDS011;27636;52.610;13.244;2023-04-25T07:53:18;16.33;;;4.50;;
41943;SDS011;27636;52.610;13.244;2023-04-25T07:58:30;12.52;;;3.38;;
41943;SDS011;27636;52.610;13.244;2023-04-25T08:03:36;12.68;;;2.75;;
41943;SDS011;27636;52.610;13.244;2023-04-25T08:08:47;15.95;;;3.40;;
41943;SDS011;27636;52.610;13.244;2023-04-25T08:13:56;16.23;;;2.85;;
41943;SDS011;27636;52.610;13.244;2023-04-25T08:19:02;19.13;;;2.90;;
41943;SDS011;27636;52.610;13.244;2023-04-25T08:24:07;12.80;;;2.78;;
41943;SDS011;27636;52.610;13.244;2023-04-25T08:29:16;10.82;;;2.35;;
41943;SDS011;27636;52.610;13.244;2023-04-25T08:34:20;14.32;;;2.65;;
41943;SDS011;27636;52.610;13.244;2023-04-25T08:45:06;12.13;;;2.78;;
41943;SDS011;27636;52.610;13.244;2023-04-25T08:50:16;12.05;;;2.63;;
41943;SDS011;27636;52.610;13.244;2023-04-25T08:55:25;13.05;;;3.38;;
41943;SDS011;27636;52.610;13.244;2023-04-25T09:00:35;8.27;;;2.00;;
41943;SDS011;27636;52.610;13.244;2023-04-25T09:05:40;10.35;;;2.35;;
41943;SDS011;27636;52.610;13.244;2023-04-25T09:10:50;13.32;;;2.03;;
41943;SDS011;27636;52.610;13.244;2023-04-25T09:15:56;9.02;;;1.90;;
41943;SDS011;27636;52.610;13.244;2023-04-25T09:21:16;8.40;;;1.73;;
41943;SDS011;27636;52.610;13.244;2023-04-25T09:26:22;11.52;;;1.70;;
41943;SDS011;27636;52.610;13.244;2023-04-25T09:31:28;4.17;;;2.10;;
41943;SDS011;27636;52.610;13.244;2023-04-25T09:36:37;7.22;;;1.77;;
41943;SDS011;27636;52.610;13.244;2023-04-25T09:42:11;6.85;;;2.08;;
41943;SDS011;27636;52.610;13.244;2023-04-25T09:47:17;6.85;;;2.70;;
41943;SDS011;27636;52.610;13.244;2023-04-25T09:52:24;11.05;;;2.13;;
41943;SDS011;27636;52.610;13.244;2023-04-25T09:57:39;11.50;;;2.00;;
41943;SDS011;27636;52.610;13.244;2023-04-25T10:02:46;11.23;;;1.77;;
41943;SDS011;27636;52.610;13.244;2023-04-25T10:08:10;8.00;;;1.73;;
41943;SDS011;27636;52.610;13.244;2023-04-25T10:13:16;8.70;;;1.75;;
41943;SDS011;27636;52.610;13.244;2023-04-25T10:18:23;10.25;;;1.90;;
41943;SDS011;27636;52.610;13.244;2023-04-25T10:23:29;8.75;;;1.63;;
41943;SDS011;27636;52.610;13.244;2023-04-25T10:34:01;4.60;;;1.55;;
41943;SDS011;27636;52.610;13.244;2023-04-25T10:39:06;10.40;;;1.83;;
41943;SDS011;27636;52.610;13.244;2023-04-25T10:44:12;4.30;;;1.25;;
41943;SDS011;27636;52.610;13.244;2023-04-25T10:49:30;5.50;;;1.42;;
41943;SDS011;27636;52.610;13.244;2023-04-25T10:54:39;8.65;;;2.10;;
41943;SDS011;27636;52.610;13.244;2023-04-25T10:59:45;8.73;;;1.63;;
41943;SDS011;27636;52.610;13.244;2023-04-25T11:04:50;5.07;;;1.60;;
41943;SDS011;27636;52.610;13.244;2023-04-25T11:09:55;9.70;;;1.30;;
41943;SDS011;27636;52.610;13.244;2023-04-25T11:15:00;3.25;;;1.40;;
41943;SDS011;27636;52.610;13.244;2023-04-25T11:20:08;6.10;;;1.75;;
41943;SDS011;27636;52.610;13.244;2023-04-25T11:25:15;9.07;;;1.27;;
41943;SDS011;27636;52.610;13.244;2023-04-25T11:30:20;6.23;;;1.17;;
41943;SDS011;27636;52.610;13.244;2023-04-25T11:35:28;5.80;;;1.50;;
41943;SDS011;27636;52.610;13.244;2023-04-25T11:40:32;6.60;;;1.65;;
41943;SDS011;27636;52.610;13.244;2023-04-25T11:45:36;6.70;;;1.80;;
41943;SDS011;27636;52.610;13.244;2023-04-25T11:50:42;9.80;;;1.80;;
41943;SDS011;27636;52.610;13.244;2023-04-25T12:00:50;4.77;;;1.47;;
41943;SDS011;27636;52.610;13.244;2023-04-25T12:05:56;4.13;;;1.42;;
41943;SDS011;27636;52.610;13.244;2023-04-25T12:11:19;6.15;;;1.65;;
41943;SDS011;27636;52.610;13.244;2023-04-25T12:16:24;6.32;;;1.60;;
41943;SDS011;27636;52.610;13.244;2023-04-25T12:21:31;9.40;;;1.40;;
41943;SDS011;27636;52.610;13.244;2023-04-25T12:26:48;6.53;;;1.77;;
41943;SDS011;27636;52.610;13.244;2023-04-25T12:31:54;3.50;;;1.23;;
41943;SDS011;27636;52.610;13.244;2023-04-25T12:37:00;5.63;;;1.67;;
41943;SDS011;27636;52.610;13.244;2023-04-25T12:42:05;4.32;;;1.75;;
41943;SDS011;27636;52.610;13.244;2023-04-25T12:47:12;8.18;;;1.73;;
41943;SDS011;27636;52.610;13.244;2023-04-25T12:52:20;6.28;;;1.35;;
41943;SDS011;27636;52.610;13.244;2023-04-25T12:57:24;5.55;;;1.20;;
41943;SDS011;27636;52.610;13.244;2023-04-25T13:02:29;7.68;;;1.17;;
41943;SDS011;27636;52.610;13.244;2023-04-25T13:07:35;3.83;;;1.42;;
41943;SDS011;27636;52.610;13.244;2023-04-25T13:17:42;3.80;;;1.30;;
41943;SDS011;27636;52.610;13.244;2023-04-25T13:22:49;6.18;;;1.27;;
41943;SDS011;27636;52.610;13.244;2023-04-25T13:27:53;5.60;;;1.40;;
41943;SDS011;27636;52.610;13.244;2023-04-25T13:38:08;5.00;;;1.33;;
41943;SDS011;27636;52.610;13.244;2023-04-25T13:43:12;6.07;;;1.58;;
41943;SDS011;27636;52.610;13.244;2023-04-25T13:48:17;3.90;;;1.00;;
41943;SDS011;27636;52.610;13.244;2023-04-25T13:53:24;4.07;;;1.10;;
41943;SDS011;27636;52.610;13.244;2023-04-25T13:58:28;13.52;;;2.67;;
41943;SDS011;27636;52.610;13.244;2023-04-25T14:03:33;5.60;;;1.42;;
41943;SDS011;27636;52.610;13.244;2023-04-25T14:08:40;4.13;;;1.10;;
41943;SDS011;27636;52.610;13.244;2023-04-25T14:13:44;7.45;;;1.60;;
41943;SDS011;27636;52.610;13.244;2023-04-25T14:18:48;6.17;;;1.70;;
41943;SDS011;27636;52.610;13.244;2023-04-25T14:23:54;5.87;;;0.93;;
41943;SDS011;27636;52.610;13.244;2023-04-25T14:28:58;6.07;;;1.20;;
41943;SDS011;27636;52.610;13.244;2023-04-25T14:34:02;6.10;;;1.75;;
41943;SDS011;27636;52.610;13.244;2023-04-25T14:39:07;8.20;;;1.67;;
41943;SDS011;27636;52.610;13.244;2023-04-25T14:44:12;4.75;;;1.15;;
41943;SDS011;27636;52.610;13.244;2023-04-25T14:49:16;3.85;;;0.98;;
41943;SDS011;27636;52.610;13.244;2023-04-25T14:54:21;5.82;;;0.95;;
41943;SDS011;27636;52.610;13.244;2023-04-25T14:59:25;8.23;;;1.10;;
41943;SDS011;27636;52.610;13.244;2023-04-25T15:04:30;2.23;;;0.90;;
41943;SDS011;27636;52.610;13.244;2023-04-25T15:09:35;0.88;;;0.80;;
41943;SDS011;27636;52.610;13.244;2023-04-25T15:14:39;1.90;;;0.68;;
41943;SDS011;27636;52.610;13.244;2023-04-25T15:19:43;5.13;;;1.10;;
41943;SDS011;27636;52.610;13.244;2023-04-25T15:24:49;2.65;;;0.80;;
41943;SDS011;27636;52.610;13.244;2023-04-25T15:29:53;2.20;;;1.10;;
41943;SDS011;27636;52.610;13.244;2023-04-25T15:34:57;4.47;;;0.85;;
41943;SDS011;27636;52.610;13.244;2023-04-25T15:40:03;5.07;;;1.15;;
41943;SDS011;27636;52.610;13.244;2023-04-25T15:45:13;2.78;;;0.95;;
41943;SDS011;27636;52.610;13.244;2023-04-25T15:50:20;4.72;;;1.10;;
41943;SDS011;27636;52.610;13.244;2023-04-25T15:55:25;4.15;;;0.90;;
41943;SDS011;27636;52.610;13.244;2023-04-25T16:00:29;4.15;;;1.10;;
41943;SDS011;27636;52.610;13.244;2023-04-25T16:05:36;4.35;;;0.50;;
41943;SDS011;27636;52.610;13.244;2023-04-25T16:10:42;2.83;;;0.83;;
41943;SDS011;27636;52.610;13.244;2023-04-25T16:20:50;4.90;;;1.10;;
41943;SDS011;27636;52.610;13.244;2023-04-25T16:25:55;3.03;;;0.97;;
41943;SDS011;27636;52.610;13.244;2023-04-25T16:31:00;1.05;;;0.55;;
41943;SDS011;27636;52.610;13.244;2023-04-25T16:36:05;6.10;;;0.82;;
41943;SDS011;27636;52.610;13.244;2023-04-25T16:41:11;6.60;;;0.65;;
41943;SDS011;27636;52.610;13.244;2023-04-25T16:46:15;7.47;;;1.30;;
41943;SDS011;27636;52.610;13.244;2023-04-25T16:51:22;3.65;;;0.90;;
41943;SDS011;27636;52.610;13.244;2023-04-25T16:56:27;1.42;;;0.70;;
41943;SDS011;27636;52.610;13.244;2023-04-25T17:01:31;2.80;;;0.70;;
41943;SDS011;27636;52.610;13.244;2023-04-25T17:06:35;7.45;;;0.98;;
41943;SDS011;27636;52.610;13.244;2023-04-25T17:11:40;2.40;;;0.75;;
41943;SDS011;27636;52.610;13.244;2023-04-25T17:16:45;5.35;;;0.88;;
41943;SDS011;27636;52.610;13.244;2023-04-25T17:21:49;5.70;;;1.73;;
41943;SDS011;27636;52.610;13.244;2023-04-25T17:26:55;2.63;;;0.80;;
41943;SDS011;27636;52.610;13.244;2023-04-25T17:32:00;3.08;;;0.65;;
41943;SDS011;27636;52.610;13.244;2023-04-25T17:37:04;1.25;;;0.60;;
41943;SDS011;27636;52.610;13.244;2023-04-25T17:42:09;2.45;;;1.17;;
41943;SDS011;27636;52.610;13.244;2023-04-25T17:47:14;2.33;;;1.08;;
41943;SDS011;27636;52.610;13.244;2023-04-25T17:52:19;8.13;;;0.95;;
41943;SDS011;27636;52.610;13.244;2023-04-25T17:57:25;1.87;;;1.00;;
41943;SDS011;27636;52.610;13.244;2023-04-25T18:02:29;5.53;;;0.90;;
41943;SDS011;27636;52.610;13.244;2023-04-25T18:07:34;4.37;;;1.30;;
41943;SDS011;27636;52.610;13.244;2023-04-25T18:12:39;11.18;;;1.20;;
41943;SDS011;27636;52.610;13.244;2023-04-25T18:17:43;11.02;;;1.30;;
41943;SDS011;27636;52.610;13.244;2023-04-25T18:22:48;3.55;;;1.05;;
41943;SDS011;27636;52.610;13.244;2023-04-25T18:27:54;7.68;;;1.30;;
41943;SDS011;27636;52.610;13.244;2023-04-25T18:32:58;4.95;;;1.13;;
41943;SDS011;27636;52.610;13.244;2023-04-25T18:38:03;1.80;;;1.05;;
41943;SDS011;27636;52.610;13.244;2023-04-25T18:43:09;2.85;;;1.05;;
41943;SDS011;27636;52.610;13.244;2023-04-25T18:48:13;7.57;;;1.27;;
41943;SDS011;27636;52.610;13.244;2023-04-25T18:53:17;2.65;;;0.77;;
41943;SDS011;27636;52.610;13.244;2023-04-25T18:58:23;3.30;;;1.30;;
41943;SDS011;27636;52.610;13.244;2023-04-25T19:03:27;4.53;;;1.45;;
41943;SDS011;27636;52.610;13.244;2023-04-25T19:08:32;3.45;;;1.00;;
41943;SDS011;27636;52.610;13.244;2023-04-25T19:13:37;3.45;;;1.27;;
41943;SDS011;27636;52.610;13.244;2023-04-25T19:23:45;7.30;;;1.77;;
41943;SDS011;27636;52.610;13.244;2023-04-25T19:29:02;4.70;;;1.23;;
41943;SDS011;27636;52.610;13.244;2023-04-25T19:34:08;7.47;;;1.30;;
41943;SDS011;27636;52.610;13.244;2023-04-25T19:44:19;2.93;;;0.80;;
41943;SDS011;27636;52.610;13.244;2023-04-25T19:49:24;3.17;;;0.90;;
41943;SDS011;27636;52.610;13.244;2023-04-25T19:54:29;3.03;;;1.17;;
41943;SDS011;27636;52.610;13.244;2023-04-25T19:59:34;1.23;;;0.80;;
41943;SDS011;27636;52.610;13.244;2023-04-25T20:04:39;6.05;;;1.50;;
41943;SDS011;27636;52.610;13.244;2023-04-25T20:09:42;4.57;;;1.15;;
41943;SDS011;27636;52.610;13.244;2023-04-25T20:14:48;7.63;;;1.35;;
41943;SDS011;27636;52.610;13.244;2023-04-25T20:19:51;2.63;;;1.20;;
41943;SDS011;27636;52.610;13.244;2023-04-25T20:24:55;3.38;;;1.33;;
41943;SDS011;27636;52.610;13.244;2023-04-25T20:30:01;1.90;;;0.98;;
41943;SDS011;27636;52.610;13.244;2023-04-25T20:35:08;4.53;;;1.45;;
41943;SDS011;27636;52.610;13.244;2023-04-25T20:40:12;9.68;;;1.40;;
41943;SDS011;27636;52.610;13.244;2023-04-25T20:45:18;12.38;;;2.03;;
41943;SDS011;27636;52.610;13.244;2023-04-25T20:50:22;3.92;;;1.75;;
41943;SDS011;27636;52.610;13.244;2023-04-25T20:55:26;6.95;;;1.33;;
41943;SDS011;27636;52.610;13.244;2023-04-25T21:00:31;3.70;;;1.45;;
41943;SDS011;27636;52.610;13.244;2023-04-25T21:05:37;2.55;;;0.90;;
41943;SDS011;27636;52.610;13.244;2023-04-25T21:10:40;5.18;;;1.23;;
41943;SDS011;27636;52.610;13.244;2023-04-25T21:15:46;5.18;;;1.20;;
41943;SDS011;27636;52.610;13.244;2023-04-25T21:25:54;4.00;;;1.23;;
41943;SDS011;27636;52.610;13.244;2023-04-25T21:30:59;12.15;;;1.02;;
41943;SDS011;27636;52.610;13.244;2023-04-25T21:36:04;6.93;;;1.08;;
41943;SDS011;27636;52.610;13.244;2023-04-25T21:41:09;14.68;;;2.08;;
41943;SDS011;27636;52.610;13.244;2023-04-25T21:46:15;8.67;;;1.43;;
41943;SDS011;27636;52.610;13.244;2023-04-25T21:51:26;2.42;;;1.00;;
41943;SDS011;27636;52.610;13.244;2023-04-25T21:56:31;3.58;;;1.00;;
41943;SDS011;27636;52.610;13.244;2023-04-25T22:01:36;11.60;;;1.30;;
41943;SDS011;27636;52.610;13.244;2023-04-25T22:06:42;11.00;;;1.58;;
41943;SDS011;27636;52.610;13.244;2023-04-25T22:16:56;3.45;;;1.63;;
41943;SDS011;27636;52.610;13.244;2023-04-25T22:22:02;5.78;;;1.73;;
41943;SDS011;27636;52.610;13.244;2023-04-25T22:27:07;2.70;;;1.05;;
41943;SDS011;27636;52.610;13.244;2023-04-25T22:32:15;1.50;;;0.75;;
41943;SDS011;27636;52.610;13.244;2023-04-25T22:37:19;1.85;;;1.08;;
41943;SDS011;27636;52.610;13.244;2023-04-25T22:42:24;1.33;;;0.70;;
41943;SDS011;27636;52.610;13.244;2023-04-25T22:47:30;5.35;;;1.15;;
41943;SDS011;27636;52.610;13.244;2023-04-25T22:52:35;1.67;;;0.90;;
41943;SDS011;27636;52.610;13.244;2023-04-25T22:57:40;2.35;;;1.15;;
41943;SDS011;27636;52.610;13.244;2023-04-25T23:02:46;4.43;;;2.40;;
41943;SDS011;27636;52.610;13.244;2023-04-25T23:07:51;5.43;;;1.40;;
41943;SDS011;27636;52.610;13.244;2023-04-25T23:12:55;4.20;;;1.40;;
41943;SDS011;27636;52.610;13.244;2023-04-25T23:18:05;5.97;;;0.82;;
41943;SDS011;27636;52.610;13.244;2023-04-25T23:23:09;12.00;;;1.10;;
41943;SDS011;27636;52.610;13.244;2023-04-25T23:28:14;9.35;;;1.23;;
41943;SDS011;27636;52.610;13.244;2023-04-25T23:33:20;4.75;;;1.10;;
41943;SDS011;27636;52.610;13.244;2023-04-25T23:38:25;14.82;;;1.42;;
41943;SDS011;27636;52.610;13.244;2023-04-25T23:43:29;5.77;;;1.63;;
41943;SDS011;27636;52.610;13.244;2023-04-25T23:48:34;2.65;;;1.38;;
41943;SDS011;27636;52.610;13.244;2023-04-25T23:53:38;4.20;;;1.02;;
41943;SDS011;27636;52.610;13.244;2023-04-25T23:58:43;7.10;;;0.85;;
